Time;durP1;ratioP1;P1;durP2;ratioP2;P2;SDS_P1;SDS_P2;PMS_P1;PMS_P2;Temp;Humidity;BMP_temperature;BMP_pressure;BME280_temperature;BME280_humidity;BME280_pressure;Samples;Min_cycle;Max_cycle;Signal;HPM_P1;HPM_P2
2023/05/01 00:01:52;;;;;;;9.60;8.70;;;11.40;99.90;;;;;;6136787;23;20222;-75
2023/05/01 00:04:20;;;;;;;9.35;8.55;;;11.30;99.90;;;;;;6148691;23;20265;-75
2023/05/01 00:06:47;;;;;;;9.88;9.07;;;11.30;99.90;;;;;;6125839;23;20214;-75
2023/05/01 00:09:15;;;;;;;9.40;8.63;;;11.30;99.90;;;;;;6121957;23;20198;-75
2023/05/01 00:11:42;;;;;;;9.07;8.30;;;11.30;99.90;;;;;;6142030;23;20522;-75
2023/05/01 00:14:09;;;;;;;8.68;8.07;;;11.30;99.90;;;;;;6148105;23;20260;-75
2023/05/01 00:16:36;;;;;;;9.35;7.43;;;11.30;99.90;;;;;;6148231;23;20567;-75
2023/05/01 00:19:05;;;;;;;7.78;7.07;;;11.30;99.90;;;;;;6145707;23;20269;-75
2023/05/01 00:21:32;;;;;;;7.45;6.85;;;11.30;99.90;;;;;;6134478;23;20274;-75
2023/05/01 00:23:59;;;;;;;8.40;7.70;;;11.30;99.90;;;;;;6120980;23;20644;-75
2023/05/01 00:26:29;;;;;;;7.90;7.10;;;11.30;99.90;;;;;;6121103;23;20235;-75
2023/05/01 00:28:57;;;;;;;8.27;7.50;;;11.40;99.90;;;;;;6132020;23;20634;-74
2023/05/01 00:31:24;;;;;;;8.18;7.45;;;11.40;99.90;;;;;;6147845;23;20274;-75
2023/05/01 00:33:51;;;;;;;6.57;6.07;;;11.50;99.90;;;;;;6135857;23;20670;-75
2023/05/01 00:36:19;;;;;;;7.97;7.38;;;11.50;99.90;;;;;;6137641;23;20242;-75
2023/05/01 00:38:47;;;;;;;7.93;7.25;;;11.50;99.90;;;;;;6139401;23;20659;-75
2023/05/01 00:41:14;;;;;;;8.00;7.40;;;11.50;99.90;;;;;;6149631;23;20616;-75
2023/05/01 00:43:41;;;;;;;7.55;6.97;;;11.50;99.90;;;;;;6137767;23;20186;-75
2023/05/01 00:46:08;;;;;;;7.63;6.95;;;11.50;99.90;;;;;;6149381;23;20293;-75
2023/05/01 00:48:36;;;;;;;7.85;7.25;;;11.60;99.90;;;;;;6123753;23;20199;-75
2023/05/01 00:51:05;;;;;;;8.50;7.90;;;11.50;99.90;;;;;;6131525;23;20193;-75
2023/05/01 00:53:34;;;;;;;7.90;7.25;;;11.50;99.90;;;;;;6149735;23;20210;-75
2023/05/01 00:56:03;;;;;;;7.90;7.25;;;11.50;99.90;;;;;;6143526;23;20291;-75
2023/05/01 00:58:30;;;;;;;7.55;7.05;;;11.50;99.90;;;;;;6121114;23;20206;-75
2023/05/01 01:00:57;;;;;;;7.43;6.93;;;11.50;99.90;;;;;;6147684;23;20262;-75
2023/05/01 01:03:24;;;;;;;7.70;7.10;;;11.40;99.90;;;;;;6149890;23;20273;-75
2023/05/01 01:05:56;;;;;;;9.45;8.55;;;11.40;99.90;;;;;;6153906;23;20193;-75
2023/05/01 01:08:29;;;;;;;9.75;8.85;;;11.40;99.90;;;;;;6140926;23;20205;-75
2023/05/01 01:11:07;;;;;;;9.15;8.32;;;11.30;99.90;;;;;;6156211;23;20201;-75
2023/05/01 01:13:46;;;;;;;9.65;8.95;;;11.30;99.90;;;;;;6120938;23;20238;-74
2023/05/01 01:16:21;;;;;;;9.88;8.90;;;11.30;99.90;;;;;;6148515;23;20617;-75
2023/05/01 01:18:52;;;;;;;8.50;7.80;;;11.20;99.90;;;;;;6149876;23;20276;-75
2023/05/01 01:21:27;;;;;;;8.77;8.07;;;11.10;99.90;;;;;;6148641;23;20266;-75
2023/05/01 01:24:30;;;;;;;8.48;7.88;;;11.10;99.90;;;;;;6132545;23;20263;-75
2023/05/01 01:27:18;;;;;;;8.52;7.93;;;11.10;99.90;;;;;;6149117;23;20242;-75
2023/05/01 01:30:01;;;;;;;9.57;8.77;;;11.10;99.90;;;;;;6149997;23;20584;-75
2023/05/01 01:33:04;;;;;;;8.98;8.38;;;11.10;99.90;;;;;;6132556;23;20192;-75
2023/05/01 01:35:35;;;;;;;8.73;8.02;;;11.10;99.90;;;;;;6137927;23;20640;-75
2023/05/01 01:38:07;;;;;;;9.32;8.52;;;11.10;99.90;;;;;;6159336;23;20193;-75
2023/05/01 01:40:39;;;;;;;8.90;8.20;;;11.10;99.90;;;;;;6141539;23;20616;-75
2023/05/01 01:43:08;;;;;;;8.32;7.63;;;11.10;99.90;;;;;;6142282;23;20277;-75
2023/05/01 01:45:39;;;;;;;8.90;8.20;;;11.10;99.90;;;;;;6149350;23;20639;-75
2023/05/01 01:48:09;;;;;;;8.35;7.65;;;11.10;99.90;;;;;;6149129;23;20340;-75
2023/05/01 01:50:39;;;;;;;8.93;8.23;;;11.10;99.90;;;;;;6137539;23;20270;-75
2023/05/01 01:53:09;;;;;;;7.72;7.13;;;11.10;99.90;;;;;;6149721;23;20221;-75
2023/05/01 01:55:39;;;;;;;7.00;6.47;;;11.20;99.90;;;;;;6147762;23;20190;-75
2023/05/01 01:58:09;;;;;;;8.38;7.72;;;11.10;99.90;;;;;;6139984;23;20217;-75
2023/05/01 02:00:37;;;;;;;8.07;7.38;;;11.10;99.90;;;;;;6136644;23;20184;-75
2023/05/01 02:03:05;;;;;;;8.25;7.65;;;11.20;99.90;;;;;;6121178;23;20267;-75
2023/05/01 02:05:32;;;;;;;7.88;7.13;;;11.10;99.90;;;;;;6138186;23;20274;-75
2023/05/01 02:08:04;;;;;;;7.63;7.03;;;11.10;99.90;;;;;;6120884;23;20191;-75
2023/05/01 02:10:32;;;;;;;7.43;6.82;;;11.00;99.90;;;;;;6140605;23;20187;-75
2023/05/01 02:13:01;;;;;;;7.88;7.28;;;11.00;99.90;;;;;;6123943;23;20180;-75
2023/05/01 02:15:29;;;;;;;8.73;7.95;;;11.00;99.90;;;;;;6129126;23;20266;-75
2023/05/01 02:17:58;;;;;;;7.50;6.88;;;11.30;99.90;;;;;;6123407;23;20236;-75
2023/05/01 02:20:25;;;;;;;8.00;7.32;;;11.00;99.90;;;;;;6149547;23;20258;-75
2023/05/01 02:22:54;;;;;;;7.03;6.43;;;11.00;99.90;;;;;;6149784;23;20301;-75
2023/05/01 02:25:23;;;;;;;6.85;6.25;;;11.00;99.90;;;;;;6137270;23;20589;-75
2023/05/01 02:27:55;;;;;;;7.95;7.35;;;11.00;99.90;;;;;;6138766;23;20218;-75
2023/05/01 02:30:23;;;;;;;7.40;6.80;;;11.10;99.90;;;;;;6133202;23;20191;-75
2023/05/01 02:32:50;;;;;;;7.28;6.72;;;11.00;99.90;;;;;;6141893;23;20199;-75
2023/05/01 02:35:17;;;;;;;7.82;7.22;;;11.10;99.90;;;;;;6123427;23;20222;-75
2023/05/01 02:37:45;;;;;;;7.30;6.70;;;11.10;99.90;;;;;;6140376;23;20282;-75
2023/05/01 02:40:13;;;;;;;7.53;6.93;;;11.10;99.90;;;;;;6148930;23;20237;-75
2023/05/01 02:42:43;;;;;;;7.68;7.07;;;11.10;99.90;;;;;;6149550;23;20244;-75
2023/05/01 02:45:18;;;;;;;7.07;6.55;;;11.20;99.90;;;;;;6148438;23;20182;-75
2023/05/01 02:47:48;;;;;;;7.13;6.43;;;11.20;99.90;;;;;;6142121;23;20238;-75
2023/05/01 02:50:16;;;;;;;7.13;6.63;;;11.20;99.90;;;;;;6149497;23;20535;-75
2023/05/01 02:52:44;;;;;;;7.40;6.80;;;11.20;99.90;;;;;;6149531;23;20240;-75
2023/05/01 02:55:11;;;;;;;8.13;7.32;;;11.30;99.90;;;;;;6129986;23;20230;-75
2023/05/01 02:57:40;;;;;;;8.00;7.40;;;11.30;99.90;;;;;;6138101;23;20633;-75
2023/05/01 03:00:12;;;;;;;7.97;7.38;;;11.30;99.90;;;;;;6149177;23;20190;-75
2023/05/01 03:02:40;;;;;;;7.80;7.10;;;11.30;99.90;;;;;;6149906;23;20238;-75
2023/05/01 03:05:07;;;;;;;8.23;7.55;;;11.40;99.90;;;;;;6133310;23;20517;-75
2023/05/01 03:07:34;;;;;;;7.65;7.10;;;11.40;99.90;;;;;;6120971;23;20261;-75
2023/05/01 03:10:03;;;;;;;8.63;8.02;;;11.40;99.90;;;;;;6129537;23;20273;-75
2023/05/01 03:12:30;;;;;;;7.80;7.20;;;11.40;99.90;;;;;;6146627;23;20201;-75
2023/05/01 03:14:57;;;;;;;7.70;7.20;;;11.40;99.90;;;;;;6148420;23;20252;-75
2023/05/01 03:17:25;;;;;;;8.60;8.00;;;11.40;99.90;;;;;;6146854;23;20215;-75
2023/05/01 03:19:52;;;;;;;8.18;7.47;;;11.30;99.90;;;;;;6136440;23;20192;-75
2023/05/01 03:22:20;;;;;;;7.43;6.90;;;11.30;99.90;;;;;;6148975;23;20593;-75
2023/05/01 03:24:47;;;;;;;7.22;6.63;;;11.30;99.90;;;;;;6147615;23;20713;-75
2023/05/01 03:27:14;;;;;;;7.93;6.90;;;11.20;99.90;;;;;;6148655;23;20718;-75
2023/05/01 03:29:41;;;;;;;6.43;5.82;;;11.10;99.90;;;;;;6134438;23;20639;-75
2023/05/01 03:32:08;;;;;;;7.60;6.20;;;11.10;99.90;;;;;;6137157;23;20190;-75
2023/05/01 03:34:36;;;;;;;7.50;6.90;;;11.20;99.90;;;;;;6141648;23;20211;-75
2023/05/01 03:37:03;;;;;;;8.25;7.65;;;11.00;99.90;;;;;;6148782;23;20211;-75
2023/05/01 03:39:30;;;;;;;7.82;7.13;;;11.10;99.90;;;;;;6125781;23;20270;-75
2023/05/01 03:41:57;;;;;;;7.18;6.57;;;10.90;99.90;;;;;;6132161;23;20191;-75
2023/05/01 03:44:24;;;;;;;7.70;7.10;;;10.90;99.90;;;;;;6141965;23;20647;-75
2023/05/01 03:46:52;;;;;;;8.13;6.97;;;10.90;99.90;;;;;;6145686;23;20251;-75
2023/05/01 03:49:19;;;;;;;7.10;6.55;;;10.90;99.90;;;;;;6150234;23;20193;-75
2023/05/01 03:51:47;;;;;;;6.78;6.28;;;10.90;99.90;;;;;;6145341;23;20264;-75
2023/05/01 03:54:14;;;;;;;6.40;5.85;;;10.90;99.90;;;;;;6119866;23;20243;-75
2023/05/01 03:56:41;;;;;;;5.57;5.15;;;10.90;99.90;;;;;;6130335;23;20207;-75
2023/05/01 03:59:08;;;;;;;6.00;5.60;;;11.00;99.90;;;;;;6148825;23;20194;-75
2023/05/01 04:01:35;;;;;;;6.55;5.97;;;11.00;99.90;;;;;;6148618;23;20265;-75
2023/05/01 04:04:02;;;;;;;6.30;5.90;;;11.00;99.90;;;;;;6148438;23;20194;-75
2023/05/01 04:06:29;;;;;;;6.90;6.38;;;11.00;99.90;;;;;;6146946;23;20698;-76
2023/05/01 04:08:58;;;;;;;6.85;6.28;;;11.00;99.90;;;;;;6149861;23;20191;-75
2023/05/01 04:11:25;;;;;;;6.50;6.10;;;11.00;99.90;;;;;;6155230;23;20599;-76
2023/05/01 04:13:52;;;;;;;6.18;5.68;;;11.00;99.90;;;;;;6122256;23;20639;-75
2023/05/01 04:16:19;;;;;;;6.47;5.97;;;11.00;99.90;;;;;;6127076;23;20208;-76
2023/05/01 04:18:46;;;;;;;6.43;5.93;;;11.00;99.90;;;;;;6143614;23;20250;-75
2023/05/01 04:21:14;;;;;;;6.18;5.72;;;11.00;99.90;;;;;;6142088;23;20191;-75
2023/05/01 04:23:41;;;;;;;6.30;5.80;;;11.10;99.90;;;;;;6139491;23;20585;-76
2023/05/01 04:26:09;;;;;;;6.70;6.20;;;11.10;99.90;;;;;;6120940;23;20220;-75
2023/05/01 04:28:36;;;;;;;6.72;6.25;;;11.10;99.90;;;;;;6119972;23;20663;-76
2023/05/01 04:31:04;;;;;;;6.70;6.10;;;11.20;99.90;;;;;;6119943;23;20188;-75
2023/05/01 04:33:31;;;;;;;6.03;5.53;;;11.20;99.90;;;;;;6120042;23;20195;-76
2023/05/01 04:35:57;;;;;;;6.07;5.60;;;11.20;99.90;;;;;;6136825;23;20304;-76
2023/05/01 04:38:25;;;;;;;7.10;6.50;;;11.30;99.90;;;;;;6158512;23;20603;-76
2023/05/01 04:40:52;;;;;;;6.05;5.60;;;11.30;99.90;;;;;;6130483;23;20191;-76
2023/05/01 04:43:20;;;;;;;6.82;6.22;;;11.30;99.90;;;;;;6120223;23;20187;-76
2023/05/01 04:45:47;;;;;;;6.55;5.95;;;11.30;99.90;;;;;;6128753;23;20214;-76
2023/05/01 04:48:14;;;;;;;6.70;6.00;;;11.40;99.90;;;;;;6152644;23;20274;-76
2023/05/01 04:50:41;;;;;;;6.85;6.25;;;11.40;99.90;;;;;;6148257;23;20269;-76
2023/05/01 04:53:08;;;;;;;7.15;6.55;;;11.40;99.90;;;;;;6133425;23;20266;-76
2023/05/01 04:55:36;;;;;;;6.07;5.60;;;11.40;99.90;;;;;;6125516;23;20681;-76
2023/05/01 04:58:03;;;;;;;6.10;5.68;;;11.50;99.90;;;;;;6148040;23;20190;-76
2023/05/01 05:00:32;;;;;;;6.57;5.97;;;11.50;99.90;;;;;;6144763;23;20207;-76
2023/05/01 05:02:59;;;;;;;6.40;5.80;;;11.50;99.90;;;;;;6130086;23;20191;-76
2023/05/01 05:05:26;;;;;;;6.55;6.05;;;11.50;99.90;;;;;;6142834;23;20199;-76
2023/05/01 05:07:53;;;;;;;5.43;5.13;;;11.60;99.90;;;;;;6142994;23;20195;-76
2023/05/01 05:10:20;;;;;;;5.53;5.20;;;11.70;99.90;;;;;;6140399;23;20192;-76
2023/05/01 05:12:47;;;;;;;6.45;5.90;;;11.60;99.90;;;;;;6129453;23;20516;-76
2023/05/01 05:15:15;;;;;;;6.18;5.68;;;11.60;99.90;;;;;;6149716;23;20275;-76
2023/05/01 05:17:44;;;;;;;5.90;5.45;;;11.60;99.90;;;;;;6132870;23;20199;-76
2023/05/01 05:20:11;;;;;;;6.00;5.60;;;11.70;99.90;;;;;;6135344;23;20649;-76
2023/05/01 05:22:38;;;;;;;7.13;6.43;;;11.60;99.90;;;;;;6142804;23;20216;-76
2023/05/01 05:25:06;;;;;;;6.50;6.00;;;11.50;99.90;;;;;;6154386;23;20202;-76
2023/05/01 05:27:36;;;;;;;7.20;6.50;;;11.50;99.90;;;;;;6145695;23;20190;-76
2023/05/01 05:30:05;;;;;;;6.35;5.85;;;11.40;99.90;;;;;;6144759;23;20258;-76
2023/05/01 05:32:32;;;;;;;6.40;6.00;;;11.40;99.90;;;;;;6122886;23;20197;-76
2023/05/01 05:35:00;;;;;;;6.75;6.20;;;11.40;99.90;;;;;;6128448;23;20215;-76
2023/05/01 05:37:28;;;;;;;6.40;5.90;;;11.40;99.90;;;;;;6126225;23;20183;-76
2023/05/01 05:39:55;;;;;;;8.50;6.38;;;11.40;99.90;;;;;;6140431;23;20282;-76
2023/05/01 05:42:22;;;;;;;5.97;5.57;;;11.50;99.90;;;;;;6146658;23;20248;-76
2023/05/01 05:44:49;;;;;;;7.82;6.55;;;11.50;99.90;;;;;;6120651;23;20270;-76
2023/05/01 05:47:16;;;;;;;6.40;5.90;;;11.40;99.90;;;;;;6128933;23;20211;-76
2023/05/01 05:49:43;;;;;;;6.25;5.85;;;11.40;99.90;;;;;;6135582;23;20218;-75
2023/05/01 05:52:12;;;;;;;6.53;6.03;;;11.50;99.90;;;;;;6120618;23;20211;-76
2023/05/01 05:54:39;;;;;;;6.93;6.43;;;11.50;99.90;;;;;;6135318;23;20221;-76
2023/05/01 05:57:06;;;;;;;6.97;6.10;;;11.50;99.90;;;;;;6145888;23;20246;-76
2023/05/01 05:59:33;;;;;;;6.90;6.40;;;11.50;99.90;;;;;;6145436;23;20190;-76
2023/05/01 06:02:00;;;;;;;7.80;7.20;;;11.50;99.90;;;;;;6148848;23;20643;-76
2023/05/01 06:04:27;;;;;;;7.20;6.70;;;11.40;99.90;;;;;;6140012;23;20188;-76
2023/05/01 06:06:54;;;;;;;7.30;6.70;;;11.40;99.90;;;;;;6132846;23;20210;-76
2023/05/01 06:09:23;;;;;;;7.13;6.53;;;11.40;99.90;;;;;;6140368;23;20219;-76
2023/05/01 06:11:50;;;;;;;6.80;6.30;;;11.30;99.90;;;;;;6134345;23;20240;-76
2023/05/01 06:14:17;;;;;;;7.40;6.90;;;11.30;99.90;;;;;;6148941;23;20190;-75
2023/05/01 06:16:45;;;;;;;6.80;6.30;;;11.30;99.90;;;;;;6137597;23;20691;-76
2023/05/01 06:19:12;;;;;;;7.22;6.63;;;11.30;99.90;;;;;;6142037;23;20222;-76
2023/05/01 06:21:40;;;;;;;6.72;6.22;;;11.30;99.90;;;;;;6120797;23;20187;-76
2023/05/01 06:24:07;;;;;;;8.15;7.55;;;11.30;99.90;;;;;;6120804;23;20194;-76
2023/05/01 06:26:35;;;;;;;7.25;6.65;;;11.40;99.90;;;;;;6141676;23;20210;-76
2023/05/01 06:29:02;;;;;;;7.18;6.60;;;11.40;99.90;;;;;;6135555;23;20275;-76
2023/05/01 06:31:29;;;;;;;7.25;6.65;;;11.40;99.90;;;;;;6120491;23;20669;-76
2023/05/01 06:33:56;;;;;;;7.43;6.82;;;11.50;99.90;;;;;;6122405;23;20659;-76
2023/05/01 06:36:23;;;;;;;6.07;5.68;;;11.50;99.90;;;;;;6148764;23;20219;-76
2023/05/01 06:38:50;;;;;;;6.65;6.07;;;11.50;99.90;;;;;;6149379;23;20218;-76
2023/05/01 06:41:17;;;;;;;6.70;6.20;;;11.50;99.90;;;;;;6148667;23;20215;-76
2023/05/01 06:43:46;;;;;;;7.57;6.93;;;11.60;99.90;;;;;;6136197;23;20442;-76
2023/05/01 06:46:13;;;;;;;6.55;6.07;;;11.60;99.90;;;;;;6120558;23;20290;-76
2023/05/01 06:48:40;;;;;;;6.90;6.40;;;11.70;99.90;;;;;;6120743;23;20701;-76
2023/05/01 06:51:07;;;;;;;6.38;5.97;;;11.70;99.90;;;;;;6120886;23;20694;-76
2023/05/01 06:53:35;;;;;;;6.55;6.05;;;11.90;99.90;;;;;;6140042;23;20194;-76
2023/05/01 06:56:02;;;;;;;6.20;5.70;;;11.80;99.90;;;;;;6156255;23;20230;-76
2023/05/01 06:58:29;;;;;;;7.10;6.35;;;11.80;99.90;;;;;;6120724;23;20188;-76
2023/05/01 07:00:58;;;;;;;6.68;6.18;;;11.80;99.90;;;;;;6133174;23;20215;-76
2023/05/01 07:03:26;;;;;;;6.32;5.82;;;11.80;99.90;;;;;;6138736;23;20186;-76
2023/05/01 07:05:54;;;;;;;6.73;6.23;;;11.70;99.90;;;;;;6148475;23;20331;-76
2023/05/01 07:08:21;;;;;;;6.35;5.85;;;11.70;99.90;;;;;;6132678;23;20508;-76
2023/05/01 07:10:48;;;;;;;6.03;5.63;;;11.70;99.90;;;;;;6144321;23;20214;-76
2023/05/01 07:13:15;;;;;;;6.18;5.68;;;11.70;99.90;;;;;;6136042;23;20189;-76
2023/05/01 07:15:42;;;;;;;5.88;5.45;;;11.70;99.90;;;;;;6120082;23;20219;-76
2023/05/01 07:18:11;;;;;;;6.50;5.80;;;11.80;99.90;;;;;;6136077;23;20650;-76
2023/05/01 07:20:39;;;;;;;6.10;5.70;;;12.00;99.90;;;;;;6148800;23;20187;-76
2023/05/01 07:23:06;;;;;;;7.15;6.40;;;11.80;99.90;;;;;;6124645;23;20194;-76
2023/05/01 07:25:33;;;;;;;6.50;5.90;;;11.80;99.90;;;;;;6120113;23;20246;-76
2023/05/01 07:28:03;;;;;;;6.10;5.60;;;11.80;99.90;;;;;;6120384;23;20211;-76
2023/05/01 07:30:31;;;;;;;6.00;5.50;;;12.00;99.90;;;;;;6148159;23;20188;-76
2023/05/01 07:32:58;;;;;;;6.55;6.05;;;12.00;99.90;;;;;;6150723;23;20303;-76
2023/05/01 07:35:27;;;;;;;6.20;5.70;;;12.10;99.90;;;;;;6141699;23;20253;-76
2023/05/01 07:37:54;;;;;;;6.77;6.27;;;12.20;99.90;;;;;;6129939;23;20214;-76
2023/05/01 07:40:21;;;;;;;6.80;6.20;;;12.10;99.90;;;;;;6148185;23;20947;-76
2023/05/01 07:42:48;;;;;;;6.43;5.83;;;11.90;99.90;;;;;;6148906;23;20925;-76
2023/05/01 07:45:15;;;;;;;7.10;6.50;;;11.80;99.90;;;;;;6148448;23;20451;-76
2023/05/01 07:47:42;;;;;;;7.57;6.97;;;11.60;99.90;;;;;;6146256;23;20975;-76
2023/05/01 07:50:10;;;;;;;9.45;7.57;;;11.50;99.90;;;;;;6122829;23;20573;-76
2023/05/01 07:52:39;;;;;;;7.18;6.57;;;11.60;99.90;;;;;;6149094;23;20642;-76
2023/05/01 07:55:07;;;;;;;7.22;6.68;;;11.60;99.90;;;;;;6147850;23;20268;-75
2023/05/01 07:57:35;;;;;;;7.63;6.97;;;11.70;99.90;;;;;;6121006;23;20188;-76
2023/05/01 08:00:03;;;;;;;7.13;6.55;;;11.80;99.90;;;;;;6120263;23;20188;-76
2023/05/01 08:02:30;;;;;;;6.70;6.10;;;12.00;99.90;;;;;;6140932;23;20218;-76
2023/05/01 08:04:57;;;;;;;7.37;6.77;;;12.20;99.90;;;;;;6139688;23;20442;-76
2023/05/01 08:07:24;;;;;;;7.43;6.77;;;12.40;99.90;;;;;;6134682;23;20441;-76
2023/05/01 08:09:52;;;;;;;7.03;6.53;;;12.50;99.90;;;;;;6120328;23;20447;-76
2023/05/01 08:12:19;;;;;;;7.17;6.67;;;12.70;99.90;;;;;;6119741;23;20434;-76
2023/05/01 08:14:46;;;;;;;8.40;7.60;;;12.70;99.90;;;;;;6132374;23;20439;-75
2023/05/01 08:17:13;;;;;;;6.87;6.37;;;12.50;99.90;;;;;;6119812;23;20466;-76
2023/05/01 08:19:41;;;;;;;8.10;7.50;;;12.40;99.90;;;;;;6150091;23;20607;-76
2023/05/01 08:22:09;;;;;;;7.87;7.27;;;12.50;99.90;;;;;;6148417;23;20790;-76
2023/05/01 08:24:36;;;;;;;7.90;7.30;;;12.50;99.90;;;;;;6122392;23;20442;-75
2023/05/01 08:27:04;;;;;;;7.77;7.17;;;12.50;99.90;;;;;;6119598;23;20422;-75
2023/05/01 08:29:31;;;;;;;8.23;7.63;;;12.60;99.90;;;;;;6148579;23;20425;-76
2023/05/01 08:31:58;;;;;;;8.10;7.40;;;12.70;99.90;;;;;;6148634;23;20425;-76
2023/05/01 08:34:25;;;;;;;8.90;8.20;;;12.80;99.90;;;;;;6154418;23;21136;-75
2023/05/01 08:36:52;;;;;;;8.37;7.67;;;12.90;99.90;;;;;;6120090;23;20469;-75
2023/05/01 08:39:20;;;;;;;9.60;8.63;;;12.90;99.90;;;;;;6148839;23;20440;-75
2023/05/01 08:41:47;;;;;;;8.40;7.67;;;12.90;99.90;;;;;;6148954;23;20441;-76
2023/05/01 08:44:17;;;;;;;8.53;7.93;;;12.90;99.90;;;;;;6149444;23;20495;-75
2023/05/01 08:46:47;;;;;;;8.53;7.83;;;13.00;99.90;;;;;;6143976;23;20581;-76
2023/05/01 08:49:16;;;;;;;9.80;8.90;;;13.20;99.90;;;;;;6120891;23;20502;-76
2023/05/01 08:51:46;;;;;;;8.47;7.87;;;13.30;99.90;;;;;;6120990;23;20968;-76
2023/05/01 08:54:14;;;;;;;8.57;7.87;;;13.50;99.90;;;;;;6139614;23;20457;-76
2023/05/01 08:56:44;;;;;;;7.63;7.13;;;13.70;99.90;;;;;;6134641;23;20493;-76
2023/05/01 08:59:13;;;;;;;8.80;8.10;;;13.90;99.90;;;;;;6149691;23;20431;-76
2023/05/01 09:01:42;;;;;;;8.73;7.80;;;14.20;99.90;;;;;;6149545;23;20428;-76
2023/05/01 09:04:10;;;;;;;8.50;7.90;;;14.50;99.90;;;;;;6149632;23;20565;-75
2023/05/01 09:06:38;;;;;;;8.90;8.20;;;14.70;99.90;;;;;;6123103;23;21029;-76
2023/05/01 09:09:05;;;;;;;7.33;6.63;;;15.00;99.90;;;;;;6121249;23;20490;-76
2023/05/01 09:11:34;;;;;;;8.20;7.60;;;15.20;99.90;;;;;;6138877;23;20448;-76
2023/05/01 09:14:04;;;;;;;8.80;8.07;;;15.50;99.90;;;;;;6129340;23;20840;-76
2023/05/01 09:16:31;;;;;;;8.50;7.83;;;15.70;99.90;;;;;;6149312;23;20460;-76
2023/05/01 09:19:00;;;;;;;7.77;7.17;;;16.00;99.90;;;;;;6149566;23;20824;-76
2023/05/01 09:21:30;;;;;;;8.60;7.80;;;16.10;99.90;;;;;;6149411;23;20564;-76
2023/05/01 09:23:57;;;;;;;8.70;8.00;;;16.20;99.90;;;;;;6131840;23;20433;-76
2023/05/01 09:26:25;;;;;;;8.93;8.20;;;16.00;99.90;;;;;;6142668;23;20964;-76
2023/05/01 09:28:56;;;;;;;8.60;7.90;;;16.00;99.90;;;;;;6138443;23;20468;-76
2023/05/01 09:31:27;;;;;;;8.33;7.73;;;16.10;99.90;;;;;;6148909;23;20440;-76
2023/05/01 09:33:56;;;;;;;7.73;7.13;;;16.10;99.90;;;;;;6138549;23;20433;-76
2023/05/01 09:36:25;;;;;;;7.73;7.20;;;16.20;99.90;;;;;;6149121;23;20650;-76
2023/05/01 09:38:53;;;;;;;8.07;7.47;;;16.20;99.90;;;;;;6138778;23;20464;-76
2023/05/01 09:41:21;;;;;;;7.27;6.70;;;16.40;99.90;;;;;;6130325;23;20929;-76
2023/05/01 09:43:52;;;;;;;7.40;6.80;;;16.70;99.90;;;;;;6149425;23;20451;-76
2023/05/01 09:46:19;;;;;;;7.47;6.97;;;17.00;99.90;;;;;;6138964;23;20477;-77
2023/05/01 09:48:54;;;;;;;7.67;6.97;;;17.10;99.90;;;;;;6147652;23;20433;-76
2023/05/01 09:51:25;;;;;;;6.90;6.50;;;17.40;99.90;;;;;;6127825;23;20872;-76
2023/05/01 09:53:54;;;;;;;7.60;7.00;;;17.40;99.90;;;;;;6147187;23;20456;-76
2023/05/01 09:56:22;;;;;;;7.73;7.23;;;17.60;99.90;;;;;;6149529;23;20466;-76
2023/05/01 09:58:51;;;;;;;7.13;6.63;;;17.70;99.90;;;;;;6146980;23;20533;-76
2023/05/01 10:01:19;;;;;;;8.27;7.53;;;17.80;99.90;;;;;;6120810;23;20434;-77
2023/05/01 10:03:53;;;;;;;7.47;6.93;;;17.80;99.90;;;;;;6146544;23;20501;-76
2023/05/01 10:06:28;;;;;;;7.83;7.23;;;18.10;99.90;;;;;;6154211;23;20459;-76
2023/05/01 10:08:55;;;;;;;7.30;6.67;;;18.50;99.90;;;;;;6137952;23;20424;-77
2023/05/01 10:11:23;;;;;;;6.90;6.40;;;18.70;99.90;;;;;;6149286;23;20478;-76
2023/05/01 10:14:06;;;;;;;7.23;6.73;;;18.80;99.90;;;;;;6124545;23;20431;-76
2023/05/01 10:16:34;;;;;;;7.77;7.17;;;19.00;99.90;;;;;;6119988;23;20604;-76
2023/05/01 10:19:02;;;;;;;8.17;7.60;;;19.10;99.90;;;;;;6147812;23;20844;-76
2023/05/01 10:21:31;;;;;;;7.33;6.83;;;19.20;99.90;;;;;;6148601;23;20469;-76
2023/05/01 10:24:00;;;;;;;6.80;6.30;;;18.80;99.90;;;;;;6149367;23;20428;-76
2023/05/01 10:26:27;;;;;;;6.73;6.23;;;18.70;99.90;;;;;;6136137;23;20528;-76
2023/05/01 10:28:57;;;;;;;7.70;7.10;;;18.80;99.90;;;;;;6149413;23;21089;-76
2023/05/01 10:31:25;;;;;;;8.10;7.40;;;19.00;99.90;;;;;;6149559;23;20529;-78
2023/05/01 10:33:52;;;;;;;5.87;5.47;;;19.00;99.90;;;;;;6148392;23;20836;-76
2023/05/01 10:36:25;;;;;;;6.80;6.30;;;19.10;99.90;;;;;;6137513;23;20476;-76
2023/05/01 10:38:53;;;;;;;6.07;5.67;;;19.40;99.90;;;;;;6136000;23;20722;-76
2023/05/01 10:41:54;;;;;;;6.87;6.27;;;19.30;99.90;;;;;;6120703;23;20421;-76
2023/05/01 10:44:23;;;;;;;6.67;6.17;;;19.40;99.90;;;;;;6120159;23;20434;-77
2023/05/01 10:46:50;;;;;;;6.73;6.30;;;19.50;99.90;;;;;;6121152;23;20448;-77
2023/05/01 10:49:17;;;;;;;6.53;6.10;;;19.60;99.90;;;;;;6137581;23;20438;-77
2023/05/01 10:51:59;;;;;;;6.00;5.50;;;19.70;99.90;;;;;;6126580;23;20810;-77
2023/05/01 10:54:27;;;;;;;6.10;5.70;;;19.80;99.90;;;;;;6138332;23;20940;-77
2023/05/01 10:56:57;;;;;;;6.90;6.30;;;19.70;99.90;;;;;;6136842;23;20470;-77
2023/05/01 10:59:24;;;;;;;6.07;5.50;;;19.70;99.90;;;;;;6120870;23;20428;-77
2023/05/01 11:01:52;;;;;;;6.30;5.90;;;19.70;99.90;;;;;;6137941;23;20466;-77
2023/05/01 11:04:52;;;;;;;5.90;5.30;;;19.70;99.90;;;;;;6136509;23;20531;-77
2023/05/01 11:07:21;;;;;;;6.97;6.37;;;19.60;99.90;;;;;;6138242;23;20510;-77
2023/05/01 11:09:53;;;;;;;6.03;5.63;;;19.80;99.90;;;;;;6148495;23;20515;-77
2023/05/01 11:12:47;;;;;;;6.03;5.53;;;19.80;99.90;;;;;;6138313;23;20526;-75
2023/05/01 11:15:27;;;;;;;6.53;6.00;;;20.10;99.90;;;;;;6136712;23;20518;-76
2023/05/01 11:17:54;;;;;;;7.20;6.70;;;20.30;99.90;;;;;;6147991;23;20498;-76
2023/05/01 11:20:48;;;;;;;7.17;6.67;;;20.30;99.90;;;;;;6137640;23;20432;-76
2023/05/01 11:23:19;;;;;;;7.10;6.60;;;20.10;99.90;;;;;;6145622;23;20425;-76
2023/05/01 11:25:50;;;;;;;7.13;6.63;;;20.00;99.90;;;;;;6136248;23;20456;-76
2023/05/01 11:28:21;;;;;;;6.80;6.40;;;20.00;99.90;;;;;;6148986;23;20519;-75
2023/05/01 11:30:48;;;;;;;6.63;6.23;;;19.90;99.90;;;;;;6148476;23;20438;-76
2023/05/01 11:33:24;;;;;;;6.30;5.90;;;19.90;99.90;;;;;;6150260;23;20453;-76
2023/05/01 11:36:02;;;;;;;6.73;6.33;;;19.90;99.90;;;;;;6149293;23;20459;-76
2023/05/01 11:38:29;;;;;;;7.00;6.47;;;20.00;99.90;;;;;;6149164;23;20431;-76
2023/05/01 11:40:59;;;;;;;6.27;5.83;;;20.10;99.90;;;;;;6149317;23;20434;-76
2023/05/01 11:43:26;;;;;;;7.13;6.63;;;20.20;99.90;;;;;;6149182;23;20439;-76
2023/05/01 11:46:00;;;;;;;6.47;6.07;;;20.30;99.90;;;;;;6152491;23;20452;-76
2023/05/01 11:48:29;;;;;;;5.90;5.50;;;20.40;99.90;;;;;;6148792;23;20427;-76
2023/05/01 11:50:56;;;;;;;6.77;6.23;;;20.40;99.90;;;;;;6149527;23;20421;-76
2023/05/01 11:53:23;;;;;;;6.63;6.23;;;20.50;99.90;;;;;;6149233;23;20427;-76
2023/05/01 11:55:50;;;;;;;6.03;5.63;;;20.50;99.90;;;;;;6148839;23;20453;-76
2023/05/01 11:58:30;;;;;;;5.73;5.30;;;20.50;99.90;;;;;;6147794;23;20931;-76
2023/05/01 12:00:58;;;;;;;6.20;5.80;;;20.40;99.90;;;;;;6156922;23;20475;-76
2023/05/01 12:03:25;;;;;;;7.20;6.70;;;20.30;99.90;;;;;;6156808;23;20800;-77
2023/05/01 12:05:52;;;;;;;6.27;5.80;;;20.10;99.90;;;;;;6148900;23;20459;-75
2023/05/01 12:08:22;;;;;;;5.80;5.40;;;20.00;99.90;;;;;;6147014;23;20874;-75
2023/05/01 12:10:51;;;;;;;6.23;5.80;;;19.90;99.90;;;;;;6147159;23;20531;-75
2023/05/01 12:13:20;;;;;;;6.90;6.40;;;20.00;99.90;;;;;;6148854;23;20432;-75
2023/05/01 12:15:49;;;;;;;6.87;6.40;;;20.10;99.90;;;;;;6152883;23;20520;-75
2023/05/01 12:18:17;;;;;;;6.90;6.40;;;20.20;99.90;;;;;;6153373;23;20542;-75
2023/05/01 12:20:46;;;;;;;6.83;6.33;;;20.30;99.90;;;;;;6150399;23;20439;-75
2023/05/01 12:23:15;;;;;;;6.43;6.03;;;20.50;99.90;;;;;;6149788;23;20439;-75
2023/05/01 12:25:44;;;;;;;6.03;5.63;;;20.90;99.90;;;;;;6149672;23;20487;-75
2023/05/01 12:28:13;;;;;;;6.73;6.17;;;21.30;99.90;;;;;;6150524;23;20428;-75
2023/05/01 12:30:42;;;;;;;6.53;6.03;;;21.80;99.90;;;;;;6143650;23;20531;-75
2023/05/01 12:33:12;;;;;;;6.63;6.13;;;22.40;99.90;;;;;;6149216;23;20432;-76
2023/05/01 12:35:39;;;;;;;6.40;6.00;;;23.00;99.90;;;;;;6149167;23;20854;-76
2023/05/01 12:38:11;;;;;;;6.50;6.10;;;23.40;99.90;;;;;;6149959;23;20502;-76
2023/05/01 12:40:39;;;;;;;6.67;6.27;;;23.60;99.60;;;;;;6149942;23;20516;-76
2023/05/01 12:43:07;;;;;;;6.30;5.90;;;23.60;99.00;;;;;;6149830;23;20436;-76
2023/05/01 12:45:41;;;;;;;6.33;5.93;;;23.20;99.10;;;;;;6155029;23;20490;-76
2023/05/01 12:48:13;;;;;;;6.30;5.90;;;22.80;99.30;;;;;;6148961;23;20474;-76
2023/05/01 12:50:41;;;;;;;6.90;6.50;;;22.60;99.50;;;;;;6149796;23;20441;-76
2023/05/01 12:53:09;;;;;;;6.60;6.20;;;22.20;99.80;;;;;;6150014;23;20416;-76
2023/05/01 12:55:50;;;;;;;6.43;5.93;;;21.80;99.60;;;;;;6149372;23;20487;-77
2023/05/01 12:58:18;;;;;;;6.70;6.30;;;21.50;99.90;;;;;;6157822;23;20549;-76